sensor_id;sensor_type;location;lat;lon;timestamp;temperature;humidity
4727;DHT22;2377;51.734;8.950;2023-11-19T00:00:34;7.10;99.90
4727;DHT22;2377;51.734;8.950;2023-11-19T00:03:05;7.10;99.90
4727;DHT22;2377;51.734;8.950;2023-11-19T00:05:34;7.20;99.90
4727;DHT22;2377;51.734;8.950;2023-11-19T00:08:05;7.20;99.90
4727;DHT22;2377;51.734;8.950;2023-11-19T00:10:36;7.20;99.90
4727;DHT22;2377;51.734;8.950;2023-11-19T00:13:04;7.30;99.90
4727;DHT22;2377;51.734;8.950;2023-11-19T00:15:32;7.30;99.90
4727;DHT22;2377;51.734;8.950;2023-11-19T00:18:00;7.30;99.90
4727;DHT22;2377;51.734;8.950;2023-11-19T00:20:31;7.30;99.90
4727;DHT22;2377;51.734;8.950;2023-11-19T00:23:01;7.30;99.90
4727;DHT22;2377;51.734;8.950;2023-11-19T00:25:29;7.40;99.90
4727;DHT22;2377;51.734;8.950;2023-11-19T00:28:00;7.50;99.90
4727;DHT22;2377;51.734;8.950;2023-11-19T00:30:30;7.50;99.90
4727;DHT22;2377;51.734;8.950;2023-11-19T00:33:02;7.50;99.90
4727;DHT22;2377;51.734;8.950;2023-11-19T00:35:29;7.50;99.90
4727;DHT22;2377;51.734;8.950;2023-11-19T00:37:57;7.50;99.90
4727;DHT22;2377;51.734;8.950;2023-11-19T00:40:26;7.50;99.90
4727;DHT22;2377;51.734;8.950;2023-11-19T00:42:54;7.50;99.90
4727;DHT22;2377;51.734;8.950;2023-11-19T00:45:23;7.60;99.90
4727;DHT22;2377;51.734;8.950;2023-11-19T00:47:51;7.60;99.90
4727;DHT22;2377;51.734;8.950;2023-11-19T00:50:21;7.60;99.90
4727;DHT22;2377;51.734;8.950;2023-11-19T00:52:52;7.60;99.90
4727;DHT22;2377;51.734;8.950;2023-11-19T00:55:20;7.60;99.90
4727;DHT22;2377;51.734;8.950;2023-11-19T00:57:48;7.60;99.90
4727;DHT22;2377;51.734;8.950;2023-11-19T01:00:18;7.70;99.90
4727;DHT22;2377;51.734;8.950;2023-11-19T01:02:52;7.70;99.90
4727;DHT22;2377;51.734;8.950;2023-11-19T01:05:19;7.70;99.90
4727;DHT22;2377;51.734;8.950;2023-11-19T01:07:50;7.70;99.90
4727;DHT22;2377;51.734;8.950;2023-11-19T01:10:19;7.80;99.90
4727;DHT22;2377;51.734;8.950;2023-11-19T01:12:48;7.80;99.90
4727;DHT22;2377;51.734;8.950;2023-11-19T01:15:15;7.80;99.90
4727;DHT22;2377;51.734;8.950;2023-11-19T01:17:44;7.80;99.90
4727;DHT22;2377;51.734;8.950;2023-11-19T01:20:13;7.80;99.90
4727;DHT22;2377;51.734;8.950;2023-11-19T01:22:41;7.80;99.90
4727;DHT22;2377;51.734;8.950;2023-11-19T01:25:09;7.90;99.90
4727;DHT22;2377;51.734;8.950;2023-11-19T01:27:37;7.90;99.90
4727;DHT22;2377;51.734;8.950;2023-11-19T01:30:06;7.90;99.90
4727;DHT22;2377;51.734;8.950;2023-11-19T01:32:39;8.00;99.90
4727;DHT22;2377;51.734;8.950;2023-11-19T01:35:09;8.00;99.90
4727;DHT22;2377;51.734;8.950;2023-11-19T01:37:45;8.00;99.90
4727;DHT22;2377;51.734;8.950;2023-11-19T01:40:20;8.00;99.90
4727;DHT22;2377;51.734;8.950;2023-11-19T01:42:48;8.10;99.90
4727;DHT22;2377;51.734;8.950;2023-11-19T01:45:27;8.10;99.90
4727;DHT22;2377;51.734;8.950;2023-11-19T01:47:56;8.10;99.90
4727;DHT22;2377;51.734;8.950;2023-11-19T01:50:24;8.20;99.90
4727;DHT22;2377;51.734;8.950;2023-11-19T01:52:58;8.30;99.90
4727;DHT22;2377;51.734;8.950;2023-11-19T01:55:27;8.30;99.90
4727;DHT22;2377;51.734;8.950;2023-11-19T01:57:58;8.40;99.90
4727;DHT22;2377;51.734;8.950;2023-11-19T02:00:32;8.40;99.90
4727;DHT22;2377;51.734;8.950;2023-11-19T02:03:00;8.40;99.90
4727;DHT22;2377;51.734;8.950;2023-11-19T02:05:29;8.50;99.90
4727;DHT22;2377;51.734;8.950;2023-11-19T02:08:01;8.50;99.90
4727;DHT22;2377;51.734;8.950;2023-11-19T02:10:28;8.50;99.90
4727;DHT22;2377;51.734;8.950;2023-11-19T02:12:57;8.60;99.90
4727;DHT22;2377;51.734;8.950;2023-11-19T02:15:25;8.60;99.90
4727;DHT22;2377;51.734;8.950;2023-11-19T02:17:57;8.80;99.90
4727;DHT22;2377;51.734;8.950;2023-11-19T02:20:30;8.80;99.90
4727;DHT22;2377;51.734;8.950;2023-11-19T02:23:00;9.00;99.90
4727;DHT22;2377;51.734;8.950;2023-11-19T02:25:32;9.00;99.90
4727;DHT22;2377;51.734;8.950;2023-11-19T02:28:03;9.10;99.90
4727;DHT22;2377;51.734;8.950;2023-11-19T02:30:32;9.30;99.90
4727;DHT22;2377;51.734;8.950;2023-11-19T02:33:02;9.30;99.90
4727;DHT22;2377;51.734;8.950;2023-11-19T02:35:33;9.30;99.90
4727;DHT22;2377;51.734;8.950;2023-11-19T02:38:01;9.30;99.90
4727;DHT22;2377;51.734;8.950;2023-11-19T02:40:32;9.40;99.90
4727;DHT22;2377;51.734;8.950;2023-11-19T02:43:00;9.50;99.90
4727;DHT22;2377;51.734;8.950;2023-11-19T02:45:32;9.50;99.90
4727;DHT22;2377;51.734;8.950;2023-11-19T02:48:01;9.50;99.90
4727;DHT22;2377;51.734;8.950;2023-11-19T02:50:35;9.50;99.90
4727;DHT22;2377;51.734;8.950;2023-11-19T02:53:03;9.50;99.90
4727;DHT22;2377;51.734;8.950;2023-11-19T02:55:32;9.60;99.90
4727;DHT22;2377;51.734;8.950;2023-11-19T02:58:04;9.60;99.90
4727;DHT22;2377;51.734;8.950;2023-11-19T03:00:46;9.60;99.90
4727;DHT22;2377;51.734;8.950;2023-11-19T03:03:20;9.60;99.90
4727;DHT22;2377;51.734;8.950;2023-11-19T03:05:48;9.60;99.90
4727;DHT22;2377;51.734;8.950;2023-11-19T03:08:16;9.60;99.90
4727;DHT22;2377;51.734;8.950;2023-11-19T03:10:48;9.80;99.90
4727;DHT22;2377;51.734;8.950;2023-11-19T03:13:15;9.80;99.90
4727;DHT22;2377;51.734;8.950;2023-11-19T03:15:46;9.80;99.90
4727;DHT22;2377;51.734;8.950;2023-11-19T03:18:14;9.80;99.90
4727;DHT22;2377;51.734;8.950;2023-11-19T03:20:41;9.90;99.90
4727;DHT22;2377;51.734;8.950;2023-11-19T03:23:10;9.90;99.90
4727;DHT22;2377;51.734;8.950;2023-11-19T03:25:38;10.00;99.90
4727;DHT22;2377;51.734;8.950;2023-11-19T03:28:06;10.00;99.90
4727;DHT22;2377;51.734;8.950;2023-11-19T03:30:37;10.00;99.90
4727;DHT22;2377;51.734;8.950;2023-11-19T03:33:06;10.10;99.90
4727;DHT22;2377;51.734;8.950;2023-11-19T03:35:34;10.10;99.90
4727;DHT22;2377;51.734;8.950;2023-11-19T03:38:15;10.10;99.90
4727;DHT22;2377;51.734;8.950;2023-11-19T03:40:42;10.20;99.90
4727;DHT22;2377;51.734;8.950;2023-11-19T03:43:10;10.20;99.90
4727;DHT22;2377;51.734;8.950;2023-11-19T03:45:38;10.30;99.90
4727;DHT22;2377;51.734;8.950;2023-11-19T03:48:12;10.30;99.90
4727;DHT22;2377;51.734;8.950;2023-11-19T03:50:41;10.30;99.90
4727;DHT22;2377;51.734;8.950;2023-11-19T03:53:12;10.30;99.90
4727;DHT22;2377;51.734;8.950;2023-11-19T03:55:40;10.30;99.90
4727;DHT22;2377;51.734;8.950;2023-11-19T03:58:08;10.30;99.90
4727;DHT22;2377;51.734;8.950;2023-11-19T04:00:39;10.40;99.90
4727;DHT22;2377;51.734;8.950;2023-11-19T04:03:09;10.40;99.90
4727;DHT22;2377;51.734;8.950;2023-11-19T04:05:38;10.40;99.90
4727;DHT22;2377;51.734;8.950;2023-11-19T04:08:08;10.50;99.90
4727;DHT22;2377;51.734;8.950;2023-11-19T04:10:35;10.50;99.90
4727;DHT22;2377;51.734;8.950;2023-11-19T04:13:04;10.50;99.90
4727;DHT22;2377;51.734;8.950;2023-11-19T04:15:34;10.50;99.90
4727;DHT22;2377;51.734;8.950;2023-11-19T04:18:02;10.50;99.90
4727;DHT22;2377;51.734;8.950;2023-11-19T04:20:29;10.60;99.90
4727;DHT22;2377;51.734;8.950;2023-11-19T04:23:00;10.60;99.90
4727;DHT22;2377;51.734;8.950;2023-11-19T04:25:29;10.50;99.90
4727;DHT22;2377;51.734;8.950;2023-11-19T04:27:58;10.60;99.90
4727;DHT22;2377;51.734;8.950;2023-11-19T04:30:25;10.60;99.90
4727;DHT22;2377;51.734;8.950;2023-11-19T04:32:54;10.70;99.90
4727;DHT22;2377;51.734;8.950;2023-11-19T04:35:21;10.60;99.90
4727;DHT22;2377;51.734;8.950;2023-11-19T04:37:49;10.70;99.90
4727;DHT22;2377;51.734;8.950;2023-11-19T04:40:17;10.80;99.90
4727;DHT22;2377;51.734;8.950;2023-11-19T04:42:44;10.70;99.90
4727;DHT22;2377;51.734;8.950;2023-11-19T04:45:12;10.80;99.90
4727;DHT22;2377;51.734;8.950;2023-11-19T04:47:42;10.80;99.90
4727;DHT22;2377;51.734;8.950;2023-11-19T04:50:10;10.70;99.90
4727;DHT22;2377;51.734;8.950;2023-11-19T04:52:38;10.80;99.90
4727;DHT22;2377;51.734;8.950;2023-11-19T04:55:20;10.80;99.90
4727;DHT22;2377;51.734;8.950;2023-11-19T04:57:48;10.90;99.90
4727;DHT22;2377;51.734;8.950;2023-11-19T05:00:15;10.90;99.90
4727;DHT22;2377;51.734;8.950;2023-11-19T05:02:42;10.90;99.90
4727;DHT22;2377;51.734;8.950;2023-11-19T05:05:10;10.90;99.90
4727;DHT22;2377;51.734;8.950;2023-11-19T05:07:37;11.00;99.90
4727;DHT22;2377;51.734;8.950;2023-11-19T05:10:05;11.00;99.90
4727;DHT22;2377;51.734;8.950;2023-11-19T05:12:36;11.00;99.90
4727;DHT22;2377;51.734;8.950;2023-11-19T05:15:05;11.00;99.90
4727;DHT22;2377;51.734;8.950;2023-11-19T05:17:37;11.00;99.90
4727;DHT22;2377;51.734;8.950;2023-11-19T05:20:10;11.00;99.90
4727;DHT22;2377;51.734;8.950;2023-11-19T05:22:39;11.00;99.90
4727;DHT22;2377;51.734;8.950;2023-11-19T05:25:07;11.00;99.90
4727;DHT22;2377;51.734;8.950;2023-11-19T05:27:37;11.00;99.90
4727;DHT22;2377;51.734;8.950;2023-11-19T05:30:08;11.00;99.90
4727;DHT22;2377;51.734;8.950;2023-11-19T05:32:37;11.00;99.90
4727;DHT22;2377;51.734;8.950;2023-11-19T05:35:05;11.00;99.90
4727;DHT22;2377;51.734;8.950;2023-11-19T05:37:34;11.00;99.90
4727;DHT22;2377;51.734;8.950;2023-11-19T05:40:04;11.00;99.90
4727;DHT22;2377;51.734;8.950;2023-11-19T05:42:47;11.00;99.90
4727;DHT22;2377;51.734;8.950;2023-11-19T05:45:15;11.00;99.90
4727;DHT22;2377;51.734;8.950;2023-11-19T05:47:43;11.00;99.90
4727;DHT22;2377;51.734;8.950;2023-11-19T05:50:11;11.00;99.90
4727;DHT22;2377;51.734;8.950;2023-11-19T05:52:38;11.00;99.90
4727;DHT22;2377;51.734;8.950;2023-11-19T05:55:06;11.00;99.90
4727;DHT22;2377;51.734;8.950;2023-11-19T05:57:36;11.00;99.90
4727;DHT22;2377;51.734;8.950;2023-11-19T06:00:07;11.00;99.90
4727;DHT22;2377;51.734;8.950;2023-11-19T06:02:39;10.90;99.90
4727;DHT22;2377;51.734;8.950;2023-11-19T06:05:07;10.90;99.90
4727;DHT22;2377;51.734;8.950;2023-11-19T06:07:35;10.80;99.90
4727;DHT22;2377;51.734;8.950;2023-11-19T06:10:05;10.80;99.90
4727;DHT22;2377;51.734;8.950;2023-11-19T06:12:35;10.80;99.90
4727;DHT22;2377;51.734;8.950;2023-11-19T06:15:06;10.80;99.90
4727;DHT22;2377;51.734;8.950;2023-11-19T06:17:35;10.80;99.90
4727;DHT22;2377;51.734;8.950;2023-11-19T06:20:07;10.80;90.70
4727;DHT22;2377;51.734;8.950;2023-11-19T06:22:39;10.80;62.50
4727;DHT22;2377;51.734;8.950;2023-11-19T06:25:08;10.80;83.80
4727;DHT22;2377;51.734;8.950;2023-11-19T06:27:37;10.80;96.10
4727;DHT22;2377;51.734;8.950;2023-11-19T06:30:07;10.70;99.90
4727;DHT22;2377;51.734;8.950;2023-11-19T06:32:35;10.60;99.10
4727;DHT22;2377;51.734;8.950;2023-11-19T06:35:03;10.60;94.70
4727;DHT22;2377;51.734;8.950;2023-11-19T06:37:31;10.60;72.70
4727;DHT22;2377;51.734;8.950;2023-11-19T06:40:02;10.60;90.20
4727;DHT22;2377;51.734;8.950;2023-11-19T06:42:32;10.60;90.90
4727;DHT22;2377;51.734;8.950;2023-11-19T06:45:00;10.60;99.70
4727;DHT22;2377;51.734;8.950;2023-11-19T06:47:31;10.60;81.60
4727;DHT22;2377;51.734;8.950;2023-11-19T06:49:59;10.60;98.60
4727;DHT22;2377;51.734;8.950;2023-11-19T06:52:31;10.60;94.70
4727;DHT22;2377;51.734;8.950;2023-11-19T06:54:59;10.60;81.00
4727;DHT22;2377;51.734;8.950;2023-11-19T06:57:34;10.60;54.00
4727;DHT22;2377;51.734;8.950;2023-11-19T07:00:06;10.70;63.90
4727;DHT22;2377;51.734;8.950;2023-11-19T07:02:38;10.70;99.90
4727;DHT22;2377;51.734;8.950;2023-11-19T07:05:07;10.80;99.90
4727;DHT22;2377;51.734;8.950;2023-11-19T07:07:37;10.80;99.90
4727;DHT22;2377;51.734;8.950;2023-11-19T07:10:07;10.80;99.90
4727;DHT22;2377;51.734;8.950;2023-11-19T07:12:37;10.80;99.90
4727;DHT22;2377;51.734;8.950;2023-11-19T07:15:06;10.70;99.90
4727;DHT22;2377;51.734;8.950;2023-11-19T07:17:34;10.60;99.90
4727;DHT22;2377;51.734;8.950;2023-11-19T07:20:06;10.60;99.90
4727;DHT22;2377;51.734;8.950;2023-11-19T07:22:35;10.60;99.90
4727;DHT22;2377;51.734;8.950;2023-11-19T07:25:08;10.60;90.00
4727;DHT22;2377;51.734;8.950;2023-11-19T07:27:37;10.60;99.90
4727;DHT22;2377;51.734;8.950;2023-11-19T07:30:07;10.70;99.90
4727;DHT22;2377;51.734;8.950;2023-11-19T07:32:34;10.60;99.90
4727;DHT22;2377;51.734;8.950;2023-11-19T07:35:11;10.70;99.90
4727;DHT22;2377;51.734;8.950;2023-11-19T07:37:44;10.60;99.90
4727;DHT22;2377;51.734;8.950;2023-11-19T07:40:14;10.70;99.90
4727;DHT22;2377;51.734;8.950;2023-11-19T07:42:41;10.60;99.90
4727;DHT22;2377;51.734;8.950;2023-11-19T07:45:10;10.60;99.90
4727;DHT22;2377;51.734;8.950;2023-11-19T07:47:38;10.80;99.90
4727;DHT22;2377;51.734;8.950;2023-11-19T07:50:12;10.70;99.90
4727;DHT22;2377;51.734;8.950;2023-11-19T07:52:45;10.60;22.40
4727;DHT22;2377;51.734;8.950;2023-11-19T07:55:12;10.70;52.20
4727;DHT22;2377;51.734;8.950;2023-11-19T07:57:40;10.60;56.00
4727;DHT22;2377;51.734;8.950;2023-11-19T08:00:11;10.60;25.80
4727;DHT22;2377;51.734;8.950;2023-11-19T08:02:40;10.60;86.10
4727;DHT22;2377;51.734;8.950;2023-11-19T08:05:12;10.70;55.00
4727;DHT22;2377;51.734;8.950;2023-11-19T08:07:40;10.70;1.00
4727;DHT22;2377;51.734;8.950;2023-11-19T08:10:07;10.70;1.00
4727;DHT22;2377;51.734;8.950;2023-11-19T08:12:38;10.70;1.00
4727;DHT22;2377;51.734;8.950;2023-11-19T08:15:07;10.70;1.00
4727;DHT22;2377;51.734;8.950;2023-11-19T08:17:35;10.80;1.00
4727;DHT22;2377;51.734;8.950;2023-11-19T08:20:04;10.80;8.90
4727;DHT22;2377;51.734;8.950;2023-11-19T08:22:42;10.90;5.60
4727;DHT22;2377;51.734;8.950;2023-11-19T08:25:12;10.90;1.00
4727;DHT22;2377;51.734;8.950;2023-11-19T08:27:41;11.00;1.00
4727;DHT22;2377;51.734;8.950;2023-11-19T08:30:09;11.00;1.00
4727;DHT22;2377;51.734;8.950;2023-11-19T08:32:38;11.00;1.00
4727;DHT22;2377;51.734;8.950;2023-11-19T08:35:08;10.90;1.00
4727;DHT22;2377;51.734;8.950;2023-11-19T08:37:37;10.90;1.00
4727;DHT22;2377;51.734;8.950;2023-11-19T08:40:09;10.80;1.00
4727;DHT22;2377;51.734;8.950;2023-11-19T08:42:38;10.90;1.00
4727;DHT22;2377;51.734;8.950;2023-11-19T08:45:06;10.80;1.00
4727;DHT22;2377;51.734;8.950;2023-11-19T08:47:35;10.80;1.00
4727;DHT22;2377;51.734;8.950;2023-11-19T08:50:06;10.80;1.00
4727;DHT22;2377;51.734;8.950;2023-11-19T08:52:40;10.90;1.00
4727;DHT22;2377;51.734;8.950;2023-11-19T08:55:09;10.90;1.00
4727;DHT22;2377;51.734;8.950;2023-11-19T08:57:37;11.00;1.00
4727;DHT22;2377;51.734;8.950;2023-11-19T09:00:07;11.00;1.00
4727;DHT22;2377;51.734;8.950;2023-11-19T09:02:36;11.00;1.00
4727;DHT22;2377;51.734;8.950;2023-11-19T09:05:05;11.10;1.00
4727;DHT22;2377;51.734;8.950;2023-11-19T09:07:33;11.20;1.00
4727;DHT22;2377;51.734;8.950;2023-11-19T09:10:03;11.30;1.00
4727;DHT22;2377;51.734;8.950;2023-11-19T09:12:32;11.40;1.00
4727;DHT22;2377;51.734;8.950;2023-11-19T09:15:00;11.50;1.00
4727;DHT22;2377;51.734;8.950;2023-11-19T09:17:30;11.50;1.00
4727;DHT22;2377;51.734;8.950;2023-11-19T09:19:59;11.50;1.00
4727;DHT22;2377;51.734;8.950;2023-11-19T09:22:27;11.60;1.00
4727;DHT22;2377;51.734;8.950;2023-11-19T09:24:54;11.70;1.00
4727;DHT22;2377;51.734;8.950;2023-11-19T09:27:26;11.80;1.00
4727;DHT22;2377;51.734;8.950;2023-11-19T09:29:54;12.00;1.00
4727;DHT22;2377;51.734;8.950;2023-11-19T09:32:26;12.00;1.00
4727;DHT22;2377;51.734;8.950;2023-11-19T09:34:53;11.90;1.00
4727;DHT22;2377;51.734;8.950;2023-11-19T09:37:22;11.80;1.00
4727;DHT22;2377;51.734;8.950;2023-11-19T09:39:51;11.60;1.00
4727;DHT22;2377;51.734;8.950;2023-11-19T09:42:21;11.60;1.00
4727;DHT22;2377;51.734;8.950;2023-11-19T09:44:56;11.60;1.00
4727;DHT22;2377;51.734;8.950;2023-11-19T09:47:31;11.60;1.00
4727;DHT22;2377;51.734;8.950;2023-11-19T09:50:17;11.80;1.00
4727;DHT22;2377;51.734;8.950;2023-11-19T09:52:48;11.60;1.00
4727;DHT22;2377;51.734;8.950;2023-11-19T09:55:15;11.70;1.00
4727;DHT22;2377;51.734;8.950;2023-11-19T09:57:44;11.60;1.00
4727;DHT22;2377;51.734;8.950;2023-11-19T10:00:15;11.70;1.00
4727;DHT22;2377;51.734;8.950;2023-11-19T10:02:49;11.60;1.00
4727;DHT22;2377;51.734;8.950;2023-11-19T10:05:18;11.50;1.00
4727;DHT22;2377;51.734;8.950;2023-11-19T10:07:48;11.40;1.00
4727;DHT22;2377;51.734;8.950;2023-11-19T10:10:19;11.30;1.00
4727;DHT22;2377;51.734;8.950;2023-11-19T10:12:47;11.20;1.00
4727;DHT22;2377;51.734;8.950;2023-11-19T10:15:20;11.20;1.00
4727;DHT22;2377;51.734;8.950;2023-11-19T10:17:49;11.10;1.00
4727;DHT22;2377;51.734;8.950;2023-11-19T10:20:20;11.00;1.00
4727;DHT22;2377;51.734;8.950;2023-11-19T10:22:53;11.00;1.00
4727;DHT22;2377;51.734;8.950;2023-11-19T10:25:24;11.00;1.00
4727;DHT22;2377;51.734;8.950;2023-11-19T10:27:54;11.00;1.00
4727;DHT22;2377;51.734;8.950;2023-11-19T10:30:33;11.00;1.00
4727;DHT22;2377;51.734;8.950;2023-11-19T10:33:05;11.10;1.00
4727;DHT22;2377;51.734;8.950;2023-11-19T10:35:50;11.40;1.00
4727;DHT22;2377;51.734;8.950;2023-11-19T10:38:19;11.70;1.00
4727;DHT22;2377;51.734;8.950;2023-11-19T10:41:03;11.90;1.00
4727;DHT22;2377;51.734;8.950;2023-11-19T10:43:42;11.90;1.00
4727;DHT22;2377;51.734;8.950;2023-11-19T10:46:14;12.00;1.00
4727;DHT22;2377;51.734;8.950;2023-11-19T10:48:47;12.00;1.00
4727;DHT22;2377;51.734;8.950;2023-11-19T10:51:19;12.10;1.00
4727;DHT22;2377;51.734;8.950;2023-11-19T10:53:51;12.10;1.00
4727;DHT22;2377;51.734;8.950;2023-11-19T10:56:27;12.00;1.00
4727;DHT22;2377;51.734;8.950;2023-11-19T10:58:59;12.00;1.00
4727;DHT22;2377;51.734;8.950;2023-11-19T11:01:34;12.10;1.00
4727;DHT22;2377;51.734;8.950;2023-11-19T11:04:13;12.20;1.00
4727;DHT22;2377;51.734;8.950;2023-11-19T11:06:41;12.30;1.00
4727;DHT22;2377;51.734;8.950;2023-11-19T11:09:10;12.30;1.00
4727;DHT22;2377;51.734;8.950;2023-11-19T11:11:41;12.30;1.00
4727;DHT22;2377;51.734;8.950;2023-11-19T11:14:18;12.30;1.00
4727;DHT22;2377;51.734;8.950;2023-11-19T11:16:50;12.30;1.00
4727;DHT22;2377;51.734;8.950;2023-11-19T11:19:20;12.20;1.00
4727;DHT22;2377;51.734;8.950;2023-11-19T11:21:51;12.10;1.00
4727;DHT22;2377;51.734;8.950;2023-11-19T11:24:39;12.00;1.00
4727;DHT22;2377;51.734;8.950;2023-11-19T11:27:43;12.00;1.00
4727;DHT22;2377;51.734;8.950;2023-11-19T11:30:35;11.90;1.00
4727;DHT22;2377;51.734;8.950;2023-11-19T11:33:31;11.80;1.00
4727;DHT22;2377;51.734;8.950;2023-11-19T11:36:13;11.60;1.00
4727;DHT22;2377;51.734;8.950;2023-11-19T11:38:48;11.60;1.00
4727;DHT22;2377;51.734;8.950;2023-11-19T11:41:18;11.60;1.00
4727;DHT22;2377;51.734;8.950;2023-11-19T11:43:51;11.60;1.00
4727;DHT22;2377;51.734;8.950;2023-11-19T11:46:55;11.60;1.00
4727;DHT22;2377;51.734;8.950;2023-11-19T11:49:32;11.60;1.00
4727;DHT22;2377;51.734;8.950;2023-11-19T11:52:02;11.60;1.00
4727;DHT22;2377;51.734;8.950;2023-11-19T11:54:30;11.50;1.00
4727;DHT22;2377;51.734;8.950;2023-11-19T11:57:11;11.50;1.00
4727;DHT22;2377;51.734;8.950;2023-11-19T11:59:49;11.50;1.00
4727;DHT22;2377;51.734;8.950;2023-11-19T12:02:19;11.50;1.00
4727;DHT22;2377;51.734;8.950;2023-11-19T12:04:51;11.50;1.00
4727;DHT22;2377;51.734;8.950;2023-11-19T12:07:23;11.40;1.00
4727;DHT22;2377;51.734;8.950;2023-11-19T12:09:53;11.40;1.00
4727;DHT22;2377;51.734;8.950;2023-11-19T12:12:26;11.40;1.00
4727;DHT22;2377;51.734;8.950;2023-11-19T12:15:04;11.30;1.00
4727;DHT22;2377;51.734;8.950;2023-11-19T12:17:37;11.30;1.00
4727;DHT22;2377;51.734;8.950;2023-11-19T12:20:17;11.20;1.00
4727;DHT22;2377;51.734;8.950;2023-11-19T12:22:57;11.10;1.00
4727;DHT22;2377;51.734;8.950;2023-11-19T12:25:24;11.00;1.00
4727;DHT22;2377;51.734;8.950;2023-11-19T12:27:52;11.00;1.00
4727;DHT22;2377;51.734;8.950;2023-11-19T12:30:22;11.00;1.00
4727;DHT22;2377;51.734;8.950;2023-11-19T12:32:52;10.90;1.00
4727;DHT22;2377;51.734;8.950;2023-11-19T12:35:24;10.80;1.00
4727;DHT22;2377;51.734;8.950;2023-11-19T12:37:52;10.80;1.00
4727;DHT22;2377;51.734;8.950;2023-11-19T12:40:22;10.80;1.00
4727;DHT22;2377;51.734;8.950;2023-11-19T12:42:55;10.80;4.40
4727;DHT22;2377;51.734;8.950;2023-11-19T12:45:22;10.80;1.00
4727;DHT22;2377;51.734;8.950;2023-11-19T12:47:50;10.90;1.00
4727;DHT22;2377;51.734;8.950;2023-11-19T12:50:50;10.90;1.00
4727;DHT22;2377;51.734;8.950;2023-11-19T12:53:18;11.00;24.00
4727;DHT22;2377;51.734;8.950;2023-11-19T12:55:47;11.00;27.70
4727;DHT22;2377;51.734;8.950;2023-11-19T12:58:28;11.00;30.30
4727;DHT22;2377;51.734;8.950;2023-11-19T13:01:06;11.10;3.80
4727;DHT22;2377;51.734;8.950;2023-11-19T13:03:36;11.20;1.00
4727;DHT22;2377;51.734;8.950;2023-11-19T13:06:07;11.20;1.00
4727;DHT22;2377;51.734;8.950;2023-11-19T13:08:37;11.30;75.10
4727;DHT22;2377;51.734;8.950;2023-11-19T13:11:06;11.20;1.00
4727;DHT22;2377;51.734;8.950;2023-11-19T13:13:55;11.30;1.00
4727;DHT22;2377;51.734;8.950;2023-11-19T13:16:23;11.30;2.40
4727;DHT22;2377;51.734;8.950;2023-11-19T13:18:51;11.30;1.00
4727;DHT22;2377;51.734;8.950;2023-11-19T13:21:23;11.30;1.00
4727;DHT22;2377;51.734;8.950;2023-11-19T13:23:53;11.30;1.00
4727;DHT22;2377;51.734;8.950;2023-11-19T13:26:20;11.30;1.00
4727;DHT22;2377;51.734;8.950;2023-11-19T13:28:51;11.30;1.00
4727;DHT22;2377;51.734;8.950;2023-11-19T13:31:18;11.30;1.00
4727;DHT22;2377;51.734;8.950;2023-11-19T13:33:47;11.30;1.00
4727;DHT22;2377;51.734;8.950;2023-11-19T13:36:17;11.30;1.00
4727;DHT22;2377;51.734;8.950;2023-11-19T13:38:58;11.30;1.00
4727;DHT22;2377;51.734;8.950;2023-11-19T13:41:26;11.20;1.00
4727;DHT22;2377;51.734;8.950;2023-11-19T13:43:54;11.20;1.00
4727;DHT22;2377;51.734;8.950;2023-11-19T13:46:21;11.20;1.00
4727;DHT22;2377;51.734;8.950;2023-11-19T13:48:49;11.20;1.00
4727;DHT22;2377;51.734;8.950;2023-11-19T13:51:16;11.10;1.00
4727;DHT22;2377;51.734;8.950;2023-11-19T13:53:45;11.20;1.00
4727;DHT22;2377;51.734;8.950;2023-11-19T13:56:14;11.10;1.00
4727;DHT22;2377;51.734;8.950;2023-11-19T13:58:47;11.20;1.00
4727;DHT22;2377;51.734;8.950;2023-11-19T14:01:14;11.20;1.00
4727;DHT22;2377;51.734;8.950;2023-11-19T14:03:42;11.10;1.00
4727;DHT22;2377;51.734;8.950;2023-11-19T14:06:09;11.10;1.00
4727;DHT22;2377;51.734;8.950;2023-11-19T14:08:39;11.10;1.00
4727;DHT22;2377;51.734;8.950;2023-11-19T14:11:08;11.10;1.00
4727;DHT22;2377;51.734;8.950;2023-11-19T14:13:37;11.10;1.00
4727;DHT22;2377;51.734;8.950;2023-11-19T14:16:07;11.10;1.00
4727;DHT22;2377;51.734;8.950;2023-11-19T14:18:37;11.00;1.00
4727;DHT22;2377;51.734;8.950;2023-11-19T14:21:05;11.00;1.00
4727;DHT22;2377;51.734;8.950;2023-11-19T14:23:34;11.00;1.00
4727;DHT22;2377;51.734;8.950;2023-11-19T14:26:02;11.00;1.00
4727;DHT22;2377;51.734;8.950;2023-11-19T14:28:34;11.00;1.00
4727;DHT22;2377;51.734;8.950;2023-11-19T14:31:01;11.00;1.00
4727;DHT22;2377;51.734;8.950;2023-11-19T14:33:30;11.00;1.00
4727;DHT22;2377;51.734;8.950;2023-11-19T14:36:01;11.00;1.00
4727;DHT22;2377;51.734;8.950;2023-11-19T14:38:30;10.90;1.00
4727;DHT22;2377;51.734;8.950;2023-11-19T14:40:59;11.00;1.00
4727;DHT22;2377;51.734;8.950;2023-11-19T14:43:26;10.90;1.00
4727;DHT22;2377;51.734;8.950;2023-11-19T14:45:56;10.90;1.00
4727;DHT22;2377;51.734;8.950;2023-11-19T14:48:24;10.90;1.00
4727;DHT22;2377;51.734;8.950;2023-11-19T14:50:51;10.80;1.00
4727;DHT22;2377;51.734;8.950;2023-11-19T14:53:19;10.80;1.00
4727;DHT22;2377;51.734;8.950;2023-11-19T14:55:48;10.80;1.00
4727;DHT22;2377;51.734;8.950;2023-11-19T14:58:16;10.60;1.00
4727;DHT22;2377;51.734;8.950;2023-11-19T15:00:47;10.60;1.00
4727;DHT22;2377;51.734;8.950;2023-11-19T15:03:16;10.50;1.00
4727;DHT22;2377;51.734;8.950;2023-11-19T15:05:45;10.50;1.00
4727;DHT22;2377;51.734;8.950;2023-11-19T15:08:12;10.50;1.00
4727;DHT22;2377;51.734;8.950;2023-11-19T15:10:46;10.50;6.00
4727;DHT22;2377;51.734;8.950;2023-11-19T15:13:13;10.50;6.40
4727;DHT22;2377;51.734;8.950;2023-11-19T15:15:40;10.50;15.40
4727;DHT22;2377;51.734;8.950;2023-11-19T15:18:10;10.40;20.10
4727;DHT22;2377;51.734;8.950;2023-11-19T15:20:39;10.40;14.10
4727;DHT22;2377;51.734;8.950;2023-11-19T15:23:06;10.40;15.20
4727;DHT22;2377;51.734;8.950;2023-11-19T15:25:34;10.50;1.00
4727;DHT22;2377;51.734;8.950;2023-11-19T15:28:02;10.50;3.30
4727;DHT22;2377;51.734;8.950;2023-11-19T15:30:30;10.50;12.30
4727;DHT22;2377;51.734;8.950;2023-11-19T15:32:57;10.30;20.60
4727;DHT22;2377;51.734;8.950;2023-11-19T15:35:24;10.30;8.40
4727;DHT22;2377;51.734;8.950;2023-11-19T15:37:53;10.30;9.20
4727;DHT22;2377;51.734;8.950;2023-11-19T15:40:23;10.30;11.60
4727;DHT22;2377;51.734;8.950;2023-11-19T15:42:50;10.30;6.20
4727;DHT22;2377;51.734;8.950;2023-11-19T15:45:19;10.30;6.10
4727;DHT22;2377;51.734;8.950;2023-11-19T15:47:46;10.30;1.00
4727;DHT22;2377;51.734;8.950;2023-11-19T15:50:16;10.30;25.80
4727;DHT22;2377;51.734;8.950;2023-11-19T15:52:44;10.30;1.00
4727;DHT22;2377;51.734;8.950;2023-11-19T15:55:13;10.40;1.00
4727;DHT22;2377;51.734;8.950;2023-11-19T15:57:41;10.40;1.00
4727;DHT22;2377;51.734;8.950;2023-11-19T16:00:09;10.40;1.00
4727;DHT22;2377;51.734;8.950;2023-11-19T16:02:37;10.40;1.00
4727;DHT22;2377;51.734;8.950;2023-11-19T16:05:05;10.40;1.00
4727;DHT22;2377;51.734;8.950;2023-11-19T16:07:36;10.40;1.00
4727;DHT22;2377;51.734;8.950;2023-11-19T16:10:04;10.50;1.00
4727;DHT22;2377;51.734;8.950;2023-11-19T16:12:36;10.50;1.00
4727;DHT22;2377;51.734;8.950;2023-11-19T16:15:06;10.50;1.00
4727;DHT22;2377;51.734;8.950;2023-11-19T16:17:34;10.50;1.00
4727;DHT22;2377;51.734;8.950;2023-11-19T16:20:06;10.50;1.00
4727;DHT22;2377;51.734;8.950;2023-11-19T16:22:35;10.50;1.00
4727;DHT22;2377;51.734;8.950;2023-11-19T16:25:03;10.40;1.00
4727;DHT22;2377;51.734;8.950;2023-11-19T16:27:30;10.40;1.00
4727;DHT22;2377;51.734;8.950;2023-11-19T16:29:59;10.40;1.00
4727;DHT22;2377;51.734;8.950;2023-11-19T16:32:32;10.40;1.00